Time;durP1;ratioP1;P1;durP2;ratioP2;P2;SDS_P1;SDS_P2;PMS_P1;PMS_P2;Temp;Humidity;BMP_temperature;BMP_pressure;BME280_temperature;BME280_humidity;BME280_pressure;Samples;Min_cycle;Max_cycle;Signal;HPM_P1;HPM_P2
2023/10/10 00:01:07;;;;;;;23.67;12.00;;;15.20;99.90;;;;;;7287989;19;20186;-91
2023/10/10 00:03:36;;;;;;;21.97;11.57;;;15.20;99.90;;;;;;7305916;19;20209;-92
2023/10/10 00:06:10;;;;;;;20.73;11.77;;;15.30;99.90;;;;;;7310294;19;20265;-92
2023/10/10 00:08:42;;;;;;;19.67;10.00;;;15.30;99.90;;;;;;7266203;19;20183;-92
2023/10/10 00:11:18;;;;;;;22.03;11.03;;;15.20;99.90;;;;;;7286389;19;20191;-91
2023/10/10 00:13:46;;;;;;;20.60;11.03;;;15.10;99.90;;;;;;7288464;19;20646;-91
2023/10/10 00:19:43;;;;;;;20.53;10.53;;;14.90;99.90;;;;;;7289307;19;20215;-92
2023/10/10 00:21:59;;;;;;;20.77;11.13;;;14.80;99.90;;;;;;7186177;19;2004542;-91
2023/10/10 00:24:31;;;;;;;19.30;11.20;;;14.80;99.90;;;;;;7286346;19;20214;-91
2023/10/10 00:27:07;;;;;;;22.27;11.57;;;14.90;99.90;;;;;;7288145;19;20203;-91
2023/10/10 00:29:33;;;;;;;21.27;11.03;;;15.00;99.90;;;;;;7283111;19;20203;-92
2023/10/10 00:32:09;;;;;;;20.40;10.97;;;15.00;99.90;;;;;;7305252;19;20203;-91
2023/10/10 00:34:37;;;;;;;23.50;12.00;;;15.10;99.90;;;;;;7272975;19;20195;-92
2023/10/10 00:37:13;;;;;;;21.07;10.73;;;15.10;99.90;;;;;;7317940;19;20191;-92
2023/10/10 00:39:39;;;;;;;23.23;11.57;;;15.20;99.90;;;;;;7297969;19;20206;-91
2023/10/10 00:42:19;;;;;;;20.40;11.60;;;15.20;99.90;;;;;;7295774;19;20183;-92
2023/10/10 00:44:49;;;;;;;23.40;11.20;;;15.20;99.90;;;;;;7293691;19;20192;-91
2023/10/10 00:47:21;;;;;;;22.93;10.47;;;15.10;99.90;;;;;;7295250;19;20195;-91
2023/10/10 00:49:47;;;;;;;15.77;9.30;;;15.00;99.90;;;;;;7293424;19;20203;-92
2023/10/10 00:52:16;;;;;;;21.47;10.30;;;14.90;99.90;;;;;;7294730;19;20186;-92
2023/10/10 00:54:43;;;;;;;21.20;10.33;;;14.80;99.90;;;;;;7296320;19;20664;-92
2023/10/10 00:57:13;;;;;;;21.47;10.83;;;14.90;99.90;;;;;;7297988;19;20218;-92
2023/10/10 00:59:43;;;;;;;18.57;10.07;;;15.00;99.90;;;;;;7298908;19;20191;-91
2023/10/10 01:02:11;;;;;;;18.83;10.10;;;15.00;99.90;;;;;;7298778;19;20208;-91
2023/10/10 01:07:19;;;;;;;22.10;10.43;;;14.90;99.90;;;;;;7296091;19;20218;-92
2023/10/10 01:10:07;;;;;;;20.70;10.43;;;14.90;99.90;;;;;;7295912;19;20200;-92
2023/10/10 01:12:39;;;;;;;19.33;9.60;;;14.90;99.90;;;;;;7285729;19;20231;-91
2023/10/10 01:15:14;;;;;;;18.70;9.43;;;14.90;99.90;;;;;;7298402;19;20182;-92
2023/10/10 01:17:41;;;;;;;17.27;9.50;;;14.70;99.90;;;;;;7292521;19;20804;-91
2023/10/10 01:20:33;;;;;;;19.63;9.77;;;14.50;99.90;;;;;;7293615;19;20199;-92
2023/10/10 01:23:03;;;;;;;17.73;10.53;;;14.50;99.90;;;;;;7291458;19;20645;-92
2023/10/10 01:33:22;;;;;;;20.33;10.17;;;14.20;99.90;;;;;;7292052;19;20201;-90
2023/10/10 01:35:55;;;;;;;19.53;10.43;;;14.00;99.90;;;;;;7291346;19;20647;-92
2023/10/10 01:38:38;;;;;;;19.67;10.47;;;14.00;99.90;;;;;;7290945;19;20198;-91
2023/10/10 01:41:05;;;;;;;20.53;10.53;;;14.10;99.90;;;;;;7273619;19;20636;-92
2023/10/10 01:43:34;;;;;;;19.83;10.17;;;14.10;99.90;;;;;;7311186;19;20191;-91
2023/10/10 01:46:09;;;;;;;20.70;10.60;;;14.00;99.90;;;;;;7292155;19;20198;-92
2023/10/10 01:48:43;;;;;;;18.50;10.43;;;13.90;99.90;;;;;;7269296;19;20188;-91
2023/10/10 01:51:15;;;;;;;22.33;10.83;;;14.00;99.90;;;;;;7290451;19;20217;-91
2023/10/10 01:53:42;;;;;;;21.83;10.37;;;14.00;99.90;;;;;;7290943;19;20192;-91
2023/10/10 01:56:10;;;;;;;19.73;10.10;;;13.90;99.90;;;;;;7289924;19;20207;-90
2023/10/10 01:58:40;;;;;;;19.73;10.17;;;13.80;99.90;;;;;;7289242;19;20199;-92
2023/10/10 02:01:12;;;;;;;19.17;9.50;;;13.80;99.90;;;;;;7290345;19;20187;-91
2023/10/10 02:03:39;;;;;;;20.50;10.07;;;13.70;99.90;;;;;;7289051;19;20193;-91
2023/10/10 02:06:09;;;;;;;19.60;9.30;;;13.70;99.90;;;;;;7290044;19;20194;-91
2023/10/10 02:08:38;;;;;;;22.50;10.00;;;13.60;99.90;;;;;;7290545;19;20190;-91
2023/10/10 02:11:06;;;;;;;17.70;9.40;;;13.60;99.90;;;;;;7298698;19;20299;-92
2023/10/10 02:13:33;;;;;;;21.30;9.77;;;13.60;99.90;;;;;;7311900;19;20185;-91
2023/10/10 02:16:04;;;;;;;19.60;9.07;;;13.60;99.90;;;;;;7290600;19;20602;-91
2023/10/10 02:21:22;;;;;;;20.37;9.30;;;13.60;99.90;;;;;;7187918;19;2004363;-91
2023/10/10 02:23:53;;;;;;;18.70;8.97;;;13.60;99.90;;;;;;7290116;19;20202;-91
2023/10/10 02:26:35;;;;;;;20.40;8.80;;;13.50;99.90;;;;;;7289072;19;20196;-91
2023/10/10 02:29:17;;;;;;;20.00;9.60;;;13.60;99.90;;;;;;7294279;19;20195;-92
2023/10/10 02:31:48;;;;;;;17.67;9.70;;;13.60;99.90;;;;;;7186728;19;2004427;-91
2023/10/10 02:34:14;;;;;;;17.77;8.63;;;13.70;99.90;;;;;;7290483;19;20265;-91
2023/10/10 02:36:42;;;;;;;17.63;9.43;;;13.80;99.90;;;;;;7290853;19;20306;-92
2023/10/10 02:41:48;;;;;;;22.43;10.97;;;13.90;99.90;;;;;;7290236;19;20272;-91
2023/10/10 02:44:26;;;;;;;21.07;10.30;;;13.80;99.90;;;;;;7290296;19;20181;-92
2023/10/10 02:46:54;;;;;;;19.73;10.53;;;13.80;99.90;;;;;;7289448;19;20196;-91
2023/10/10 02:49:23;;;;;;;21.17;10.43;;;13.80;99.90;;;;;;7289968;19;20224;-91
2023/10/10 02:51:57;;;;;;;21.10;10.63;;;13.80;99.90;;;;;;7289893;19;20712;-91
2023/10/10 02:59:51;;;;;;;18.70;9.87;;;13.90;99.90;;;;;;7186588;19;2004458;-92
2023/10/10 03:02:28;;;;;;;20.67;10.10;;;14.00;99.90;;;;;;7290086;19;20256;-91
2023/10/10 03:05:06;;;;;;;19.90;9.97;;;14.00;99.90;;;;;;7290877;19;20186;-91
2023/10/10 03:07:35;;;;;;;19.60;10.23;;;14.10;99.90;;;;;;7293282;19;20181;-90
2023/10/10 03:12:42;;;;;;;22.87;10.50;;;14.10;99.90;;;;;;7187067;19;2004436;-91
2023/10/10 03:15:15;;;;;;;20.07;9.77;;;14.10;99.90;;;;;;7290637;19;20607;-92
2023/10/10 03:17:48;;;;;;;21.30;10.47;;;14.20;99.90;;;;;;7289407;19;20196;-91
2023/10/10 03:25:47;;;;;;;20.57;10.50;;;14.00;99.90;;;;;;7291908;19;20193;-92
2023/10/10 05:25:37;;;;;;;17.93;9.03;;;13.90;99.90;;;;;;7272677;19;20213;-93
2023/10/10 05:28:04;;;;;;;17.13;9.00;;;13.80;99.90;;;;;;7304900;19;20180;-93
2023/10/10 05:30:39;;;;;;;18.80;8.63;;;13.90;99.90;;;;;;7312865;19;20200;-94
2023/10/10 05:33:06;;;;;;;21.60;9.83;;;13.90;99.90;;;;;;7271626;19;20190;-93
2023/10/10 05:35:34;;;;;;;18.87;9.50;;;13.90;99.90;;;;;;7315627;19;20184;-94
2023/10/10 05:38:00;;;;;;;18.27;9.53;;;13.90;99.90;;;;;;7291447;19;20301;-93
2023/10/10 05:40:27;;;;;;;20.67;8.80;;;14.00;99.90;;;;;;7290550;19;20193;-93
2023/10/10 05:42:53;;;;;;;18.87;9.00;;;14.10;99.90;;;;;;7294009;19;20189;-92
2023/10/10 05:45:21;;;;;;;20.30;9.00;;;14.20;99.90;;;;;;7290085;19;20660;-93
2023/10/10 05:47:47;;;;;;;17.83;8.63;;;14.20;99.90;;;;;;7292990;19;20223;-93
2023/10/10 05:50:14;;;;;;;17.93;8.40;;;14.40;99.90;;;;;;7290369;19;20201;-92
2023/10/10 05:52:40;;;;;;;18.40;9.10;;;14.40;99.90;;;;;;7289925;19;20193;-93
2023/10/10 05:55:10;;;;;;;19.10;9.40;;;14.40;99.90;;;;;;7289336;19;20211;-93
2023/10/10 05:57:39;;;;;;;17.30;9.10;;;14.40;99.90;;;;;;7289754;19;20197;-93
2023/10/10 06:00:13;;;;;;;22.10;9.77;;;14.30;99.90;;;;;;7292384;19;20181;-93
2023/10/10 06:02:45;;;;;;;19.03;9.70;;;14.30;99.90;;;;;;7290411;19;20192;-93
2023/10/10 06:05:15;;;;;;;20.30;10.03;;;14.30;99.90;;;;;;7290444;19;20192;-93
2023/10/10 06:07:43;;;;;;;23.30;10.90;;;14.30;99.90;;;;;;7293111;19;20203;-91
2023/10/10 06:10:18;;;;;;;19.23;9.40;;;14.40;99.90;;;;;;7291346;19;20623;-93
2023/10/10 06:12:46;;;;;;;20.97;9.70;;;14.50;99.90;;;;;;7292621;19;20193;-92
2023/10/10 06:15:19;;;;;;;20.23;9.47;;;14.40;99.90;;;;;;7291713;19;20200;-92
2023/10/10 06:17:45;;;;;;;18.30;9.47;;;14.40;99.90;;;;;;7292008;19;20197;-92
2023/10/10 06:20:21;;;;;;;19.43;9.70;;;14.50;99.90;;;;;;7290551;19;20191;-93
2023/10/10 06:22:54;;;;;;;21.53;11.13;;;14.50;99.90;;;;;;7290322;19;20200;-92
2023/10/10 06:25:23;;;;;;;24.67;11.60;;;14.50;99.90;;;;;;7291200;19;20267;-92
2023/10/10 06:27:54;;;;;;;21.00;10.17;;;14.60;99.90;;;;;;7290601;19;20705;-93
2023/10/10 06:30:20;;;;;;;20.07;9.77;;;14.70;99.90;;;;;;7289960;19;20536;-94
2023/10/10 06:32:47;;;;;;;19.00;10.37;;;14.80;99.90;;;;;;7289000;19;20974;-93
2023/10/10 06:37:45;;;;;;;20.60;10.30;;;15.10;99.90;;;;;;7289035;19;20198;-92
2023/10/10 06:40:14;;;;;;;22.33;10.27;;;15.20;99.90;;;;;;7289636;19;20213;-92
2023/10/10 06:42:46;;;;;;;18.77;10.00;;;15.20;99.90;;;;;;7287654;19;20193;-93
2023/10/10 06:45:21;;;;;;;17.47;8.83;;;15.30;99.90;;;;;;7287303;19;20266;-93
2023/10/10 06:47:50;;;;;;;17.13;9.33;;;15.30;99.90;;;;;;7290260;19;20197;-94
2023/10/10 06:50:21;;;;;;;19.47;9.93;;;15.40;99.90;;;;;;7288267;19;20211;-94
2023/10/10 06:52:54;;;;;;;18.93;9.00;;;15.50;99.90;;;;;;7290124;19;20577;-93
2023/10/10 06:55:23;;;;;;;19.83;9.43;;;15.60;99.90;;;;;;7290068;19;20196;-93
2023/10/10 06:57:58;;;;;;;21.10;8.73;;;15.70;99.90;;;;;;7290602;19;20193;-93
2023/10/10 07:00:32;;;;;;;19.93;8.90;;;15.80;99.90;;;;;;7290945;19;20208;-95
2023/10/10 07:02:59;;;;;;;16.07;8.53;;;15.90;99.90;;;;;;7290383;19;20199;-93
2023/10/10 07:05:29;;;;;;;18.17;9.30;;;16.10;99.90;;;;;;7288747;19;20642;-94
2023/10/10 07:07:59;;;;;;;22.30;8.83;;;16.30;99.90;;;;;;7292623;19;20298;-92
2023/10/10 07:10:32;;;;;;;17.33;8.13;;;16.50;99.90;;;;;;7290752;19;20301;-93
2023/10/10 07:13:01;;;;;;;17.77;8.63;;;16.70;99.90;;;;;;7289682;19;20183;-95
2023/10/10 07:15:35;;;;;;;17.47;8.10;;;17.10;99.90;;;;;;7289953;19;20192;-93
2023/10/10 07:18:14;;;;;;;17.83;8.27;;;17.40;99.90;;;;;;7288673;19;20998;-93
2023/10/10 07:21:04;;;;;;;18.10;8.17;;;17.50;99.90;;;;;;7186140;19;2004597;-94
2023/10/10 07:23:37;;;;;;;16.50;8.17;;;17.60;99.90;;;;;;7289052;19;20181;-93
2023/10/10 07:26:24;;;;;;;18.30;8.40;;;17.60;99.90;;;;;;7294912;19;20218;-94
2023/10/10 07:28:53;;;;;;;16.23;8.03;;;17.70;99.90;;;;;;7188147;19;2006399;-94
2023/10/10 07:31:22;;;;;;;17.00;8.00;;;17.60;99.90;;;;;;7288665;19;20192;-93
2023/10/10 07:34:15;;;;;;;18.90;7.77;;;17.80;99.90;;;;;;7290580;19;20662;-94
2023/10/10 07:36:43;;;;;;;16.00;7.67;;;18.00;99.90;;;;;;7188586;19;2004591;-93
2023/10/10 07:41:57;;;;;;;15.60;7.73;;;18.70;99.90;;;;;;7289420;19;20316;-93
2023/10/10 07:44:23;;;;;;;18.70;7.87;;;18.90;99.90;;;;;;7286524;19;20544;-94
2023/10/10 07:49:34;;;;;;;18.17;8.40;;;19.30;99.90;;;;;;7289109;19;20640;-92
2023/10/10 07:52:03;;;;;;;15.77;7.70;;;19.40;99.90;;;;;;7287600;19;20256;-94
2023/10/10 07:54:38;;;;;;;20.43;7.70;;;19.50;99.90;;;;;;7285939;19;20185;-92
2023/10/10 07:57:10;;;;;;;17.97;8.00;;;19.70;99.90;;;;;;7282013;19;20227;-93
2023/10/10 07:59:36;;;;;;;17.97;7.60;;;19.90;99.90;;;;;;7288651;19;20220;-93
2023/10/10 08:02:19;;;;;;;16.80;7.97;;;19.70;99.90;;;;;;7310020;19;20185;-92
2023/10/10 08:04:50;;;;;;;21.77;8.10;;;19.70;99.90;;;;;;7185780;19;2005065;-92
2023/10/10 08:07:20;;;;;;;17.40;8.10;;;19.80;99.90;;;;;;7286991;19;20187;-93
2023/10/10 08:09:48;;;;;;;18.50;8.80;;;19.90;99.90;;;;;;7286723;19;20265;-91
2023/10/10 08:12:14;;;;;;;17.17;8.63;;;19.80;99.90;;;;;;7286369;19;20191;-92
2023/10/10 08:14:41;;;;;;;17.63;9.07;;;19.90;99.90;;;;;;7287250;19;20251;-92
2023/10/10 08:17:19;;;;;;;22.13;9.37;;;20.10;99.90;;;;;;7287513;19;20185;-93
2023/10/10 08:19:51;;;;;;;18.27;8.97;;;20.20;99.90;;;;;;7287603;19;20531;-92
2023/10/10 08:22:25;;;;;;;21.43;8.90;;;20.20;99.90;;;;;;7287815;19;20648;-92
2023/10/10 08:24:54;;;;;;;17.83;8.40;;;20.40;99.90;;;;;;7286784;19;20217;-92
2023/10/10 08:27:22;;;;;;;24.80;9.30;;;20.40;99.90;;;;;;7286774;19;20200;-92
2023/10/10 08:29:50;;;;;;;20.80;7.97;;;20.70;99.90;;;;;;7286360;19;20291;-91
2023/10/10 08:32:16;;;;;;;15.37;8.20;;;20.70;99.90;;;;;;7287088;19;20185;-93
2023/10/10 08:34:42;;;;;;;17.03;8.20;;;21.00;99.90;;;;;;7287633;19;20253;-92
2023/10/10 08:37:09;;;;;;;20.07;7.87;;;21.10;99.90;;;;;;7286733;19;20208;-92
2023/10/10 08:39:36;;;;;;;17.83;8.03;;;21.20;99.90;;;;;;7293240;19;20190;-93
2023/10/10 08:42:10;;;;;;;19.47;8.27;;;21.20;99.90;;;;;;7309124;19;20191;-92
2023/10/10 08:44:39;;;;;;;18.90;7.43;;;21.30;99.90;;;;;;7264621;19;20181;-94
2023/10/10 08:47:16;;;;;;;18.07;7.33;;;21.40;99.90;;;;;;7291431;19;20207;-91
2023/10/10 08:49:47;;;;;;;16.70;7.50;;;21.50;99.90;;;;;;7284998;19;20204;-92
2023/10/10 08:52:16;;;;;;;17.47;7.33;;;21.60;99.90;;;;;;7283934;19;20191;-92
2023/10/10 08:54:44;;;;;;;17.03;7.07;;;21.70;99.90;;;;;;7285619;19;20201;-92
2023/10/10 08:57:10;;;;;;;16.80;7.47;;;21.70;99.90;;;;;;7293370;19;20236;-93
2023/10/10 08:59:42;;;;;;;18.47;7.00;;;21.70;99.90;;;;;;7306422;19;20199;-91
2023/10/10 09:02:17;;;;;;;19.70;6.93;;;21.90;99.90;;;;;;7303640;19;20227;-92
2023/10/10 09:04:43;;;;;;;17.13;7.00;;;22.00;99.90;;;;;;7301566;19;20194;-92
2023/10/10 09:07:19;;;;;;;16.13;6.77;;;22.10;99.90;;;;;;7310719;19;20204;-91
2023/10/10 09:09:54;;;;;;;15.80;6.63;;;22.30;99.90;;;;;;7293611;19;20192;-92
2023/10/10 09:12:20;;;;;;;15.70;6.43;;;22.40;99.90;;;;;;7300783;19;20233;-92
2023/10/10 09:14:50;;;;;;;15.70;6.93;;;22.40;99.90;;;;;;7292943;19;20272;-91
2023/10/10 09:17:34;;;;;;;15.77;6.33;;;22.40;99.90;;;;;;7292088;19;20204;-92
2023/10/10 09:20:12;;;;;;;14.27;6.83;;;22.50;99.90;;;;;;7290786;19;20204;-92
2023/10/10 09:22:44;;;;;;;18.73;6.50;;;22.60;99.90;;;;;;7269165;19;20203;-90
2023/10/10 09:25:26;;;;;;;21.83;7.30;;;22.50;99.90;;;;;;7289581;19;20590;-92
2023/10/10 09:28:05;;;;;;;18.20;6.30;;;22.50;99.90;;;;;;7292080;19;20541;-92
2023/10/10 09:30:33;;;;;;;16.97;7.00;;;22.40;99.90;;;;;;7292250;19;20209;-92
2023/10/10 09:35:54;;;;;;;20.07;6.60;;;22.00;99.90;;;;;;7189573;19;2004365;-92
2023/10/10 09:38:26;;;;;;;14.43;7.17;;;22.00;99.90;;;;;;7290656;19;20199;-92
2023/10/10 09:41:10;;;;;;;15.73;6.70;;;21.90;99.90;;;;;;7291097;19;20196;-92
2023/10/10 09:44:01;;;;;;;14.93;6.13;;;22.00;99.90;;;;;;7269379;19;20202;-92
2023/10/10 09:46:53;;;;;;;16.33;6.57;;;22.40;99.90;;;;;;7293530;19;20199;-92
2023/10/10 09:49:40;;;;;;;12.97;6.10;;;23.50;99.90;;;;;;7188579;19;2004654;-92
2023/10/10 09:55:47;;;;;;;13.43;5.68;;;26.80;99.90;;;;;;7290831;19;20206;-93
2023/10/10 09:58:00;;;;;;;13.70;6.57;;;28.20;99.90;;;;;;7188863;19;2004704;-90
2023/10/10 10:06:54;;;;;;;15.00;5.53;;;29.70;99.90;;;;;;7290262;19;20196;-91
2023/10/10 10:09:21;;;;;;;13.23;5.70;;;30.00;99.90;;;;;;7188977;19;2004342;-90
2023/10/10 10:11:52;;;;;;;15.18;5.63;;;30.80;99.90;;;;;;7185112;19;2004486;-89
2023/10/10 10:14:35;;;;;;;15.93;6.30;;;30.40;97.50;;;;;;7291979;19;20955;-90
2023/10/10 10:17:23;;;;;;;12.40;5.75;;;29.90;96.90;;;;;;7290715;19;20189;-89
2023/10/10 10:19:49;;;;;;;13.77;5.80;;;29.60;98.30;;;;;;7187724;19;2004802;-90
2023/10/10 10:22:18;;;;;;;16.75;5.88;;;29.90;98.40;;;;;;7291124;19;20209;-90
2023/10/10 10:24:45;;;;;;;12.63;5.57;;;29.90;98.00;;;;;;7289467;19;20667;-90
2023/10/10 10:27:39;;;;;;;11.55;5.82;;;29.60;97.00;;;;;;7291318;19;20204;-90
2023/10/10 10:32:35;;;;;;;12.93;5.80;;;28.90;97.10;;;;;;7304354;19;20614;-90
2023/10/10 10:35:08;;;;;;;12.98;5.20;;;29.40;97.30;;;;;;7313222;19;20185;-90
2023/10/10 10:37:35;;;;;;;14.25;5.75;;;30.10;95.80;;;;;;7290235;19;20184;-91
2023/10/10 10:42:46;;;;;;;11.18;5.40;;;31.10;91.80;;;;;;7267956;19;20180;-90
2023/10/10 10:45:41;;;;;;;12.15;5.63;;;31.20;91.40;;;;;;7288736;19;20679;-91
2023/10/10 10:48:11;;;;;;;11.77;5.32;;;32.20;90.90;;;;;;7268080;19;20188;-90
2023/10/10 10:50:40;;;;;;;11.27;5.43;;;33.00;88.90;;;;;;7288096;19;20217;-91
2023/10/10 10:53:31;;;;;;;13.93;5.35;;;33.40;84.10;;;;;;7289521;19;20201;-91
2023/10/10 11:01:21;;;;;;;13.05;5.00;;;34.20;71.10;;;;;;7291007;19;20201;-90
2023/10/10 11:03:51;;;;;;;14.52;5.47;;;34.50;69.10;;;;;;7288910;19;20181;-91
2023/10/10 11:06:20;;;;;;;16.35;5.43;;;34.50;70.10;;;;;;7290699;19;20211;-92
2023/10/10 11:11:27;;;;;;;16.27;5.78;;;34.10;66.70;;;;;;7289165;19;20192;-91
2023/10/10 11:14:00;;;;;;;13.68;5.20;;;34.40;67.00;;;;;;7288971;19;20556;-91
2023/10/10 11:16:39;;;;;;;13.50;4.80;;;34.60;65.60;;;;;;7288724;19;20204;-91
2023/10/10 11:21:48;;;;;;;15.00;5.15;;;34.40;62.50;;;;;;7291390;19;20569;-91
2023/10/10 11:24:16;;;;;;;10.85;4.55;;;34.00;63.80;;;;;;7290799;19;20241;-91
2023/10/10 11:26:44;;;;;;;12.30;4.60;;;34.60;65.20;;;;;;7290101;19;20220;-90
2023/10/10 11:29:28;;;;;;;13.98;4.70;;;34.50;63.50;;;;;;7289888;19;20647;-91
2023/10/10 11:32:08;;;;;;;14.48;4.47;;;34.50;61.80;;;;;;7291144;19;20267;-90
2023/10/10 11:34:44;;;;;;;12.48;4.60;;;33.50;61.20;;;;;;7291113;19;20212;-91
2023/10/10 11:37:20;;;;;;;13.70;4.85;;;33.00;64.00;;;;;;7188946;19;2004575;-91
2023/10/10 11:40:01;;;;;;;14.18;4.22;;;32.80;64.20;;;;;;7290780;19;20526;-91
2023/10/10 11:42:27;;;;;;;13.40;4.65;;;33.00;64.70;;;;;;7288211;19;20541;-91
2023/10/10 11:45:01;;;;;;;12.02;4.78;;;33.40;66.20;;;;;;7287060;19;20189;-91
2023/10/10 11:47:27;;;;;;;16.48;5.00;;;33.20;65.00;;;;;;7288565;19;20228;-90
2023/10/10 11:50:07;;;;;;;11.13;4.63;;;33.40;63.00;;;;;;7287801;19;20216;-91
2023/10/10 11:52:32;;;;;;;14.40;4.35;;;33.50;66.40;;;;;;7290173;19;20206;-90
2023/10/10 11:55:00;;;;;;;14.52;4.93;;;34.00;65.90;;;;;;7291015;19;20189;-91
2023/10/10 11:57:29;;;;;;;15.50;5.00;;;34.20;62.90;;;;;;7289926;19;20186;-91
2023/10/10 12:00:11;;;;;;;12.20;4.35;;;34.10;61.40;;;;;;7288263;19;20727;-91
2023/10/10 12:02:40;;;;;;;11.77;4.00;;;34.10;60.80;;;;;;7266723;19;20193;-91
2023/10/10 12:08:01;;;;;;;14.10;4.55;;;34.40;62.00;;;;;;7288021;19;20221;-91
2023/10/10 12:10:42;;;;;;;12.48;3.90;;;34.00;60.20;;;;;;7286363;19;20189;-92
2023/10/10 12:13:09;;;;;;;10.35;3.95;;;33.90;59.60;;;;;;7265630;19;20648;-91
2023/10/10 12:15:40;;;;;;;13.98;4.03;;;33.40;61.10;;;;;;7299235;19;20307;-92
2023/10/10 12:18:11;;;;;;;12.05;3.95;;;33.40;60.00;;;;;;7298960;19;20203;-91
2023/10/10 12:20:42;;;;;;;12.80;3.63;;;33.70;62.80;;;;;;7290748;19;20620;-90
2023/10/10 12:23:09;;;;;;;12.77;3.65;;;33.70;60.70;;;;;;7287868;19;20276;-91
2023/10/10 12:25:40;;;;;;;10.02;3.78;;;33.90;60.50;;;;;;7305276;19;20651;-92
2023/10/10 12:28:18;;;;;;;11.25;3.63;;;34.30;63.10;;;;;;7288072;19;20192;-91
2023/10/10 12:30:46;;;;;;;12.63;3.70;;;34.30;61.20;;;;;;7292493;19;20251;-91
2023/10/10 12:33:16;;;;;;;11.48;3.17;;;34.00;60.70;;;;;;7294659;19;20188;-91
2023/10/10 12:35:48;;;;;;;12.63;3.85;;;34.20;61.40;;;;;;7294314;19;20207;-91
2023/10/10 12:38:20;;;;;;;8.88;3.58;;;34.50;59.90;;;;;;7295773;19;20224;-91
2023/10/10 12:40:52;;;;;;;10.77;3.40;;;34.30;58.30;;;;;;7294815;19;20188;-90
2023/10/10 12:43:19;;;;;;;12.95;3.75;;;33.60;58.20;;;;;;7294485;19;20193;-90
2023/10/10 12:45:51;;;;;;;12.30;4.07;;;33.30;58.30;;;;;;7294673;19;20541;-91
2023/10/10 12:48:20;;;;;;;10.88;3.90;;;33.20;59.70;;;;;;7294608;19;20256;-91
2023/10/10 12:50:50;;;;;;;12.77;4.13;;;32.70;59.10;;;;;;7293628;19;20185;-91
2023/10/10 12:53:19;;;;;;;11.60;4.13;;;32.70;62.10;;;;;;7295359;19;20195;-90
2023/10/10 12:55:49;;;;;;;10.15;3.65;;;32.90;60.90;;;;;;7293982;19;20193;-90
2023/10/10 12:58:22;;;;;;;10.63;4.05;;;32.30;60.50;;;;;;7290921;19;20200;-90
2023/10/10 13:00:52;;;;;;;13.13;4.03;;;31.90;61.70;;;;;;7292831;19;20189;-90
2023/10/10 13:03:28;;;;;;;20.02;4.47;;;31.10;61.20;;;;;;7293781;19;20189;-89
2023/10/10 13:05:58;;;;;;;12.15;4.05;;;30.70;65.00;;;;;;7294240;19;20672;-90
2023/10/10 13:08:25;;;;;;;15.30;4.15;;;29.90;62.40;;;;;;7293389;19;20195;-90
2023/10/10 13:11:02;;;;;;;14.27;4.43;;;29.50;65.50;;;;;;7291913;19;20575;-89
2023/10/10 13:13:31;;;;;;;15.07;4.13;;;29.30;66.90;;;;;;7292479;19;20188;-89
2023/10/10 13:16:07;;;;;;;13.27;4.10;;;29.10;67.60;;;;;;7292683;19;20196;-90
2023/10/10 13:18:36;;;;;;;14.85;3.90;;;28.80;64.90;;;;;;7291493;19;20188;-91
2023/10/10 13:21:03;;;;;;;15.25;3.95;;;28.60;63.90;;;;;;7292425;19;20193;-90
2023/10/10 13:23:30;;;;;;;14.38;3.78;;;28.40;65.80;;;;;;7292363;19;20185;-90
2023/10/10 13:25:57;;;;;;;10.65;3.53;;;28.10;67.10;;;;;;7291307;19;20190;-90
2023/10/10 13:28:22;;;;;;;13.70;3.90;;;28.00;67.70;;;;;;7292080;19;20180;-89
2023/10/10 13:30:48;;;;;;;10.95;3.80;;;28.00;67.60;;;;;;7290472;19;20225;-89
2023/10/10 13:33:15;;;;;;;11.75;3.80;;;27.80;68.00;;;;;;7292171;19;20192;-88
2023/10/10 13:35:41;;;;;;;13.32;3.70;;;27.70;68.60;;;;;;7292179;19;20188;-89
2023/10/10 13:38:08;;;;;;;11.88;3.90;;;27.60;70.00;;;;;;7290904;19;20213;-89
2023/10/10 13:40:37;;;;;;;10.93;3.70;;;27.60;72.50;;;;;;7311458;19;20189;-89
2023/10/10 13:43:09;;;;;;;12.90;3.40;;;27.60;73.10;;;;;;7291153;19;20213;-89
2023/10/10 13:45:38;;;;;;;8.23;3.72;;;27.60;72.00;;;;;;7282178;19;20238;-89
2023/10/10 13:48:13;;;;;;;13.80;3.65;;;27.50;72.10;;;;;;7313442;19;20192;-89
2023/10/10 13:50:42;;;;;;;9.02;3.60;;;27.60;72.80;;;;;;7268742;19;20256;-89
2023/10/10 13:53:13;;;;;;;11.70;3.50;;;27.60;74.00;;;;;;7290385;19;20296;-90
2023/10/10 13:55:41;;;;;;;12.07;3.58;;;27.60;72.70;;;;;;7289897;19;20252;-89
2023/10/10 13:58:15;;;;;;;14.35;4.00;;;27.50;72.60;;;;;;7290249;19;20196;-91
2023/10/10 14:00:45;;;;;;;13.50;3.40;;;27.40;74.00;;;;;;7290445;19;20991;-89
2023/10/10 14:03:14;;;;;;;13.95;3.47;;;27.30;73.40;;;;;;7291084;19;20200;-91
2023/10/10 14:06:00;;;;;;;13.07;3.55;;;27.40;74.10;;;;;;7291425;19;20193;-89
2023/10/10 14:08:26;;;;;;;10.95;3.72;;;27.30;75.70;;;;;;7290252;19;20214;-90
2023/10/10 14:10:54;;;;;;;11.60;3.78;;;27.40;76.50;;;;;;7290427;19;20249;-90
2023/10/10 14:13:20;;;;;;;13.18;3.45;;;27.30;77.00;;;;;;7290537;19;20215;-89
2023/10/10 14:15:56;;;;;;;16.98;3.88;;;27.40;78.30;;;;;;7291401;19;20195;-90
2023/10/10 14:18:42;;;;;;;12.15;3.28;;;27.50;76.40;;;;;;7288537;19;20204;-90
2023/10/10 14:21:09;;;;;;;12.10;3.85;;;27.50;76.70;;;;;;7269236;19;20197;-90
2023/10/10 14:23:39;;;;;;;13.82;3.67;;;27.50;75.90;;;;;;7310740;19;20636;-90
2023/10/10 14:26:27;;;;;;;10.20;3.55;;;27.40;77.20;;;;;;7311884;19;20252;-90
2023/10/10 14:28:54;;;;;;;15.98;3.90;;;27.30;77.60;;;;;;7188272;19;2004791;-90
2023/10/10 14:31:24;;;;;;;8.13;3.50;;;27.10;77.40;;;;;;7288897;19;20183;-90
2023/10/10 14:33:51;;;;;;;9.48;3.58;;;27.00;78.10;;;;;;7290607;19;20652;-90
2023/10/10 14:36:17;;;;;;;8.32;3.17;;;26.70;80.00;;;;;;7290059;19;20209;-91
2023/10/10 14:38:48;;;;;;;10.55;3.70;;;26.70;79.80;;;;;;7288558;19;20188;-90
2023/10/10 14:41:18;;;;;;;11.32;3.70;;;26.50;80.00;;;;;;7290876;19;20205;-90
2023/10/10 14:43:47;;;;;;;11.98;3.47;;;26.40;81.20;;;;;;7289077;19;20189;-90
2023/10/10 14:46:22;;;;;;;10.82;3.60;;;26.40;83.10;;;;;;7285973;19;20210;-91
2023/10/10 14:48:49;;;;;;;9.95;3.83;;;26.30;83.90;;;;;;7290181;19;20201;-91
2023/10/10 14:51:18;;;;;;;14.60;3.28;;;26.30;84.90;;;;;;7289033;19;20181;-91
2023/10/10 14:53:52;;;;;;;10.88;3.65;;;26.30;85.50;;;;;;7289462;19;20196;-90
2023/10/10 14:56:24;;;;;;;14.48;3.75;;;26.30;86.70;;;;;;7289506;19;20188;-89
2023/10/10 14:58:50;;;;;;;11.48;3.63;;;26.20;87.60;;;;;;7288595;19;20660;-89
2023/10/10 15:01:20;;;;;;;10.73;3.60;;;26.20;90.10;;;;;;7288948;19;20218;-89
2023/10/10 15:03:47;;;;;;;11.82;3.42;;;26.00;89.70;;;;;;7288633;19;20570;-89
2023/10/10 15:06:15;;;;;;;11.23;3.40;;;26.10;90.10;;;;;;7288375;19;20193;-90
2023/10/10 15:08:43;;;;;;;8.70;3.20;;;25.90;90.20;;;;;;7288405;19;20281;-89
2023/10/10 15:11:11;;;;;;;10.13;3.30;;;25.90;90.70;;;;;;7287466;19;20271;-89
2023/10/10 15:13:41;;;;;;;9.75;3.47;;;26.00;91.00;;;;;;7289885;19;20525;-89
2023/10/10 15:16:10;;;;;;;10.93;3.60;;;25.80;91.00;;;;;;7288976;19;20261;-89
2023/10/10 15:18:37;;;;;;;12.30;3.28;;;25.70;91.50;;;;;;7301091;19;20209;-89
2023/10/10 15:21:02;;;;;;;13.85;3.45;;;25.70;91.90;;;;;;7308057;19;20282;-89
2023/10/10 15:23:28;;;;;;;7.80;3.35;;;25.60;92.20;;;;;;7285836;19;20643;-89
2023/10/10 15:25:55;;;;;;;10.40;3.20;;;25.60;93.10;;;;;;7285884;19;20233;-89
2023/10/10 15:28:23;;;;;;;8.63;3.30;;;25.60;93.30;;;;;;7287270;19;20185;-88
2023/10/10 15:30:49;;;;;;;10.88;3.85;;;25.60;94.00;;;;;;7286053;19;20188;-89
2023/10/10 15:33:18;;;;;;;9.40;3.58;;;25.50;94.10;;;;;;7287684;19;20196;-87
2023/10/10 15:35:49;;;;;;;12.35;3.58;;;25.40;94.40;;;;;;7285181;19;20188;-89
2023/10/10 15:38:16;;;;;;;12.85;3.90;;;25.30;94.90;;;;;;7285881;19;20257;-89
2023/10/10 15:40:43;;;;;;;9.35;3.72;;;25.20;95.60;;;;;;7287197;19;20204;-89
2023/10/10 15:43:11;;;;;;;9.77;3.45;;;25.10;96.30;;;;;;7286073;19;20203;-88
2023/10/10 15:45:44;;;;;;;10.65;4.05;;;25.10;96.80;;;;;;7288450;19;20695;-89
2023/10/10 15:48:23;;;;;;;13.70;3.85;;;25.10;97.30;;;;;;7285619;19;20257;-89
2023/10/10 15:50:53;;;;;;;9.18;3.63;;;25.10;98.00;;;;;;7285810;19;20195;-89
2023/10/10 15:53:24;;;;;;;9.57;3.83;;;25.10;98.30;;;;;;7287204;19;20193;-89
2023/10/10 15:56:13;;;;;;;11.23;3.90;;;25.00;98.60;;;;;;7285333;19;20192;-88
2023/10/10 15:58:42;;;;;;;9.70;3.77;;;25.00;99.00;;;;;;7262960;19;20208;-87
2023/10/10 16:01:15;;;;;;;13.50;3.92;;;24.80;99.60;;;;;;7284910;19;20192;-89
2023/10/10 16:03:47;;;;;;;10.63;3.70;;;24.80;99.90;;;;;;7283695;19;20185;-88